Time;durP1;ratioP1;P1;durP2;ratioP2;P2;SDS_P1;SDS_P2;PMS_P1;PMS_P2;Temp;Humidity;BMP_temperature;BMP_pressure;BME280_temperature;BME280_humidity;BME280_pressure;Samples;Min_cycle;Max_cycle;Signal;HPM_P1;HPM_P2
2024/01/21 00:00:22;;;;;;;1.73;1.27;;;-1.90;1.00;;;;;;5277595;28;20016;-32
2024/01/21 00:02:53;;;;;;;3.13;1.10;;;-1.90;1.00;;;;;;5270340;28;20338;-32
2024/01/21 00:05:27;;;;;;;1.35;1.00;;;-2.00;1.00;;;;;;5271944;28;20020;-32
2024/01/21 00:07:59;;;;;;;1.10;1.00;;;-1.90;1.00;;;;;;5264830;28;20039;-32
2024/01/21 00:10:35;;;;;;;1.13;1.00;;;-1.90;1.00;;;;;;5271675;28;20035;-31
2024/01/21 00:13:10;;;;;;;1.00;0.90;;;-1.90;1.00;;;;;;5272122;28;20028;-32
2024/01/21 00:15:44;;;;;;;1.23;0.93;;;-1.80;1.00;;;;;;5231126;28;20038;-31
2024/01/21 00:18:17;;;;;;;1.63;1.10;;;-1.80;1.00;;;;;;5268613;28;20036;-33
2024/01/21 00:20:49;;;;;;;5.47;1.02;;;-1.90;1.00;;;;;;5274491;28;20031;-33
2024/01/21 00:23:20;;;;;;;1.48;0.70;;;-1.90;1.00;;;;;;5267996;28;21179;-32
2024/01/21 00:25:51;;;;;;;3.70;1.20;;;-2.00;1.00;;;;;;5240858;28;20051;-32
2024/01/21 00:28:27;;;;;;;2.92;1.27;;;-2.00;1.00;;;;;;5265058;28;20035;-32
2024/01/21 00:31:02;;;;;;;1.02;0.93;;;-2.00;1.00;;;;;;5247190;28;20324;-32
2024/01/21 00:33:33;;;;;;;1.67;1.00;;;-2.10;1.00;;;;;;5258063;28;20024;-33
2024/01/21 00:36:08;;;;;;;1.33;1.20;;;-2.10;1.00;;;;;;5253814;28;20035;-32
2024/01/21 00:38:41;;;;;;;1.98;1.00;;;-2.00;1.00;;;;;;5253639;28;20035;-32
2024/01/21 00:41:13;;;;;;;0.80;0.80;;;-1.90;1.00;;;;;;5272032;28;20028;-32
2024/01/21 00:43:45;;;;;;;1.33;0.98;;;-1.80;1.00;;;;;;5264158;28;20035;-32
2024/01/21 00:46:18;;;;;;;1.13;0.98;;;-1.80;1.00;;;;;;5243839;28;20032;-32
2024/01/21 00:48:52;;;;;;;0.70;0.70;;;-1.90;1.00;;;;;;5252706;28;20024;-33
2024/01/21 00:51:28;;;;;;;2.00;1.25;;;-2.00;1.00;;;;;;5257314;28;20050;-33
2024/01/21 00:53:59;;;;;;;2.43;0.60;;;-2.10;1.00;;;;;;5271176;28;20020;-33
2024/01/21 00:56:32;;;;;;;2.17;1.17;;;-2.10;1.00;;;;;;5240654;28;20044;-33
2024/01/21 00:59:07;;;;;;;0.98;0.75;;;-2.00;1.00;;;;;;5270003;28;20316;-33
2024/01/21 01:01:39;;;;;;;0.75;0.70;;;-2.00;1.00;;;;;;5258065;28;20220;-33
2024/01/21 01:04:10;;;;;;;1.08;1.02;;;-2.00;1.00;;;;;;5270965;28;20028;-33
2024/01/21 01:06:46;;;;;;;2.20;1.10;;;-2.10;1.00;;;;;;5248027;28;20223;-33
2024/01/21 01:09:17;;;;;;;1.85;1.23;;;-2.10;1.00;;;;;;5214941;28;20295;-32
2024/01/21 01:11:49;;;;;;;2.75;1.55;;;-2.00;1.00;;;;;;5249973;28;20054;-32
2024/01/21 01:14:22;;;;;;;3.08;1.67;;;-2.10;1.00;;;;;;5250235;28;20033;-32
2024/01/21 01:16:56;;;;;;;2.08;1.42;;;-2.30;1.00;;;;;;5253649;28;20032;-32
2024/01/21 01:19:27;;;;;;;4.20;1.30;;;-2.40;1.00;;;;;;5260343;28;20031;-33
2024/01/21 01:22:04;;;;;;;1.80;1.30;;;-2.60;1.00;;;;;;5270485;28;20246;-32
2024/01/21 01:24:55;;;;;;;1.98;1.27;;;-2.70;1.00;;;;;;5270934;28;20035;-33
2024/01/21 01:27:27;;;;;;;1.88;1.20;;;-2.90;1.00;;;;;;5270336;28;20032;-32
2024/01/21 01:30:00;;;;;;;1.97;1.30;;;-2.90;1.00;;;;;;5251667;28;20043;-32
2024/01/21 01:32:33;;;;;;;2.45;1.40;;;-3.00;1.00;;;;;;5268122;28;20058;-33
2024/01/21 01:35:05;;;;;;;1.92;1.60;;;-3.00;1.00;;;;;;5257438;28;20035;-33
2024/01/21 01:37:39;;;;;;;1.93;1.63;;;-2.90;1.00;;;;;;5267576;28;20205;-33
2024/01/21 01:40:19;;;;;;;2.47;1.77;;;-2.80;1.00;;;;;;5270653;28;20220;-33
2024/01/21 01:43:02;;;;;;;2.33;1.60;;;-2.70;1.00;;;;;;5251448;28;20036;-31
2024/01/21 01:45:33;;;;;;;1.80;1.70;;;-2.70;1.00;;;;;;5267126;28;20032;-31
2024/01/21 01:48:07;;;;;;;4.47;2.20;;;-2.70;1.00;;;;;;5269371;28;20062;-31
2024/01/21 01:50:45;;;;;;;1.77;1.63;;;-2.80;1.00;;;;;;5273595;28;20036;-31
2024/01/21 01:53:21;;;;;;;2.30;1.63;;;-2.80;1.00;;;;;;5263359;28;20031;-31
2024/01/21 01:55:53;;;;;;;4.47;1.67;;;-2.90;1.00;;;;;;5234688;28;20351;-31
2024/01/21 01:58:30;;;;;;;2.33;1.90;;;-2.90;1.00;;;;;;5266803;28;20032;-31
2024/01/21 02:01:07;;;;;;;2.80;1.97;;;-2.90;1.00;;;;;;5267230;28;20024;-32
2024/01/21 02:03:41;;;;;;;3.53;2.30;;;-3.00;1.00;;;;;;5270098;28;20032;-32
2024/01/21 02:06:15;;;;;;;2.77;2.13;;;-3.00;1.00;;;;;;5270135;28;20046;-32
2024/01/21 02:08:47;;;;;;;;;;;-3.10;1.00;;;;;;5269908;28;20032;-32
2024/01/21 02:11:20;;;;;;;2.87;2.13;;;-3.10;1.00;;;;;;5260739;28;20102;-32
2024/01/21 02:13:56;;;;;;;2.85;2.17;;;-3.20;1.00;;;;;;5231133;28;20032;-33
2024/01/21 02:16:27;;;;;;;4.80;2.13;;;-3.20;1.00;;;;;;5261909;28;20032;-32
2024/01/21 02:18:59;;;;;;;4.83;2.37;;;-3.40;1.00;;;;;;5251603;28;20219;-32
2024/01/21 02:21:30;;;;;;;4.70;2.27;;;-3.40;1.00;;;;;;5278204;28;20027;-32
2024/01/21 02:24:04;;;;;;;3.00;1.80;;;-3.50;1.00;;;;;;5270104;28;20040;-32
2024/01/21 02:26:35;;;;;;;3.23;2.30;;;-3.50;1.00;;;;;;5235554;28;20312;-32
2024/01/21 02:29:07;;;;;;;4.37;2.70;;;-3.50;1.00;;;;;;5227574;28;20059;-32
2024/01/21 02:31:38;;;;;;;5.90;2.40;;;-3.70;1.00;;;;;;5245990;28;20050;-32
2024/01/21 02:34:09;;;;;;;3.70;2.03;;;-3.90;1.00;;;;;;5249215;28;20047;-31
2024/01/21 02:36:43;;;;;;;7.87;2.53;;;-3.90;1.00;;;;;;5262883;28;20034;-31
2024/01/21 02:39:16;;;;;;;4.85;2.35;;;-4.00;1.00;;;;;;5262600;28;20220;-34
2024/01/21 02:41:51;;;;;;;3.55;2.28;;;-4.10;1.00;;;;;;5270926;28;20031;-32
2024/01/21 02:44:22;;;;;;;4.57;2.60;;;-4.10;1.00;;;;;;5273812;28;20346;-32
2024/01/21 02:46:53;;;;;;;5.63;2.83;;;-4.10;1.00;;;;;;5270874;28;20358;-32
2024/01/21 02:49:28;;;;;;;4.83;2.47;;;-4.10;1.00;;;;;;5273964;28;20032;-31
2024/01/21 02:51:59;;;;;;;4.23;2.33;;;-4.10;1.00;;;;;;5262253;28;20038;-31
2024/01/21 02:54:31;;;;;;;3.87;2.30;;;-4.10;1.00;;;;;;5267150;28;20232;-31
2024/01/21 02:57:05;;;;;;;2.53;1.83;;;-4.10;1.00;;;;;;5241041;28;20020;-32
2024/01/21 02:59:39;;;;;;;2.73;2.03;;;-4.00;1.00;;;;;;5251740;28;20045;-32
2024/01/21 03:02:10;;;;;;;;;;;-4.10;1.00;;;;;;5272653;28;20027;-32
2024/01/21 03:04:41;;;;;;;2.43;1.60;;;-4.10;1.00;;;;;;5239080;28;19930;-33
2024/01/21 03:07:13;;;;;;;2.40;2.03;;;-4.10;1.00;;;;;;5255569;28;20027;-32
2024/01/21 03:09:47;;;;;;;2.80;1.67;;;-4.10;1.00;;;;;;5246806;28;20047;-33
2024/01/21 03:12:18;;;;;;;5.90;1.67;;;-4.10;1.00;;;;;;5257593;28;20043;-32
2024/01/21 03:14:51;;;;;;;1.93;1.47;;;-4.10;1.00;;;;;;5247319;28;20321;-33
2024/01/21 03:17:22;;;;;;;2.03;1.50;;;-4.10;1.00;;;;;;5273449;28;20236;-32
2024/01/21 03:19:56;;;;;;;1.97;1.67;;;-4.20;1.00;;;;;;5273065;28;20028;-32
2024/01/21 03:22:30;;;;;;;2.77;1.70;;;-4.10;1.00;;;;;;5282087;28;20020;-32
2024/01/21 03:25:06;;;;;;;1.90;1.15;;;-4.10;1.00;;;;;;5271835;28;20044;-32
2024/01/21 03:27:42;;;;;;;2.30;1.40;;;-4.20;1.00;;;;;;5272951;28;20046;-32
2024/01/21 03:30:13;;;;;;;4.23;2.00;;;-4.20;1.00;;;;;;5256187;28;20223;-32
2024/01/21 03:32:47;;;;;;;2.80;1.73;;;-4.20;1.00;;;;;;5266532;28;20231;-32
2024/01/21 03:35:18;;;;;;;4.93;2.10;;;-4.30;1.00;;;;;;5272849;28;20410;-32
2024/01/21 03:37:50;;;;;;;3.70;2.00;;;-4.30;1.00;;;;;;5272914;28;20031;-35
2024/01/21 03:40:24;;;;;;;2.20;1.60;;;-4.40;1.00;;;;;;5272683;28;20068;-32
2024/01/21 03:42:58;;;;;;;1.40;1.15;;;-4.40;1.00;;;;;;5270509;28;20027;-31
2024/01/21 03:45:30;;;;;;;1.40;1.20;;;-4.50;1.00;;;;;;5251878;28;20265;-31
2024/01/21 03:48:01;;;;;;;1.17;1.03;;;-4.60;1.00;;;;;;5268091;28;20035;-31
2024/01/21 03:50:40;;;;;;;1.10;1.10;;;-4.60;1.00;;;;;;5274052;28;20020;-32
2024/01/21 03:53:28;;;;;;;2.20;1.23;;;-4.60;1.00;;;;;;5256485;28;20028;-31
2024/01/21 03:56:00;;;;;;;1.77;1.03;;;-4.60;1.00;;;;;;5255170;28;20057;-32
2024/01/21 03:58:32;;;;;;;1.33;0.90;;;-4.50;1.00;;;;;;5272201;28;20034;-32
2024/01/21 04:01:04;;;;;;;0.90;0.90;;;-4.50;1.00;;;;;;5263809;28;20336;-33
2024/01/21 04:03:38;;;;;;;1.10;0.90;;;-4.50;1.00;;;;;;5262116;28;20442;-32
2024/01/21 04:06:12;;;;;;;1.55;1.33;;;-4.50;1.00;;;;;;5272921;28;20043;-32
2024/01/21 04:08:45;;;;;;;1.67;1.47;;;-4.50;1.00;;;;;;5273172;28;20038;-32
2024/01/21 04:11:24;;;;;;;1.67;1.27;;;-4.60;1.00;;;;;;5253721;28;20046;-33
2024/01/21 04:14:01;;;;;;;2.00;1.20;;;-4.60;1.00;;;;;;5272906;28;20024;-32
2024/01/21 04:16:32;;;;;;;2.47;1.43;;;-4.70;6.70;;;;;;5270058;28;20042;-32
2024/01/21 04:19:03;;;;;;;1.77;1.30;;;-4.70;67.80;;;;;;5269435;28;20046;-32
2024/01/21 04:21:41;;;;;;;1.40;1.20;;;-4.80;68.80;;;;;;5277175;28;20036;-32
2024/01/21 04:24:15;;;;;;;1.57;1.40;;;-4.80;99.90;;;;;;5253783;28;20031;-32
2024/01/21 04:26:46;;;;;;;3.60;1.35;;;-4.90;99.90;;;;;;5237589;28;20036;-32
2024/01/21 04:29:18;;;;;;;1.97;1.20;;;-4.90;99.90;;;;;;5248978;28;20036;-33
2024/01/21 04:31:49;;;;;;;1.63;1.23;;;-5.00;99.90;;;;;;5256046;28;20214;-32
2024/01/21 04:34:22;;;;;;;1.93;1.43;;;-5.00;99.90;;;;;;5269901;28;20046;-32
2024/01/21 04:36:54;;;;;;;3.40;1.35;;;-5.10;99.90;;;;;;5262324;28;20039;-33
2024/01/21 04:39:27;;;;;;;1.57;1.33;;;-5.10;99.90;;;;;;5271324;28;20036;-32
2024/01/21 04:42:02;;;;;;;2.33;1.40;;;-5.10;99.90;;;;;;5254056;28;20032;-32
2024/01/21 04:44:33;;;;;;;2.00;1.40;;;-5.10;99.90;;;;;;5271715;28;20338;-32
2024/01/21 04:47:04;;;;;;;2.83;1.53;;;-5.20;99.90;;;;;;5268942;28;20044;-32
2024/01/21 04:49:35;;;;;;;3.07;2.10;;;-5.20;1.00;;;;;;5253182;28;20043;-32
2024/01/21 04:52:09;;;;;;;1.27;1.17;;;-5.20;1.00;;;;;;5260425;28;20031;-32
2024/01/21 04:54:43;;;;;;;2.40;1.80;;;-5.20;99.90;;;;;;5244330;28;20271;-32
2024/01/21 04:57:20;;;;;;;1.90;1.50;;;-5.20;1.00;;;;;;5268150;28;20028;-32
2024/01/21 04:59:54;;;;;;;2.20;1.80;;;-5.20;1.00;;;;;;5271032;28;20024;-32
2024/01/21 05:02:27;;;;;;;2.42;1.67;;;-5.20;1.00;;;;;;5249891;28;20024;-32
2024/01/21 05:05:00;;;;;;;3.20;1.90;;;-5.20;1.00;;;;;;5271658;28;20177;-32
2024/01/21 05:07:34;;;;;;;1.60;1.50;;;-5.20;1.00;;;;;;5237190;28;20027;-32
2024/01/21 05:10:11;;;;;;;2.78;1.70;;;-5.20;99.90;;;;;;5230406;28;20240;-33
2024/01/21 05:12:47;;;;;;;6.73;2.17;;;-5.30;99.90;;;;;;5219261;28;20052;-32
2024/01/21 05:15:21;;;;;;;2.83;1.60;;;-5.40;99.90;;;;;;5232544;28;20288;-32
2024/01/21 05:17:52;;;;;;;1.50;1.33;;;-5.50;99.90;;;;;;5255174;28;20307;-33
2024/01/21 05:20:24;;;;;;;2.50;1.53;;;-5.60;99.90;;;;;;5245939;28;20041;-32
2024/01/21 05:22:55;;;;;;;2.07;1.70;;;-5.70;99.90;;;;;;5245804;28;20342;-32
2024/01/21 05:25:26;;;;;;;2.23;1.80;;;-5.70;99.90;;;;;;5245466;28;20067;-32
2024/01/21 05:27:58;;;;;;;4.73;2.10;;;-5.70;1.00;;;;;;5250261;28;20036;-32
2024/01/21 05:30:29;;;;;;;3.20;2.27;;;-5.60;1.00;;;;;;5236041;28;20035;-32
2024/01/21 05:33:00;;;;;;;2.67;1.90;;;-5.70;1.00;;;;;;5267316;28;20346;-32
2024/01/21 05:35:34;;;;;;;1.93;1.47;;;-5.60;99.90;;;;;;5270873;28;20505;-33
2024/01/21 05:38:05;;;;;;;2.35;1.95;;;-5.60;1.00;;;;;;5270758;28;20431;-32
2024/01/21 05:40:37;;;;;;;4.53;2.77;;;-5.70;1.00;;;;;;5270419;28;20058;-32
2024/01/21 05:43:08;;;;;;;5.27;3.07;;;-5.70;1.00;;;;;;5270914;28;20218;-32
2024/01/21 05:45:40;;;;;;;4.33;2.33;;;-5.60;1.00;;;;;;5267136;28;20032;-33
2024/01/21 05:48:16;;;;;;;1.70;1.60;;;-5.60;1.00;;;;;;5263597;28;20406;-32
2024/01/21 05:50:51;;;;;;;2.77;1.67;;;-5.50;1.00;;;;;;5266289;28;20036;-32
2024/01/21 05:53:22;;;;;;;3.53;1.90;;;-5.50;99.90;;;;;;5247883;28;20044;-32
2024/01/21 05:55:53;;;;;;;1.10;1.00;;;-5.50;99.90;;;;;;5263200;28;20040;-32
2024/01/21 05:58:24;;;;;;;2.20;1.23;;;-5.50;99.90;;;;;;5266833;28;20032;-32
2024/01/21 06:00:55;;;;;;;1.97;1.47;;;-5.50;99.90;;;;;;5264711;28;20063;-32
2024/01/21 06:03:27;;;;;;;2.93;1.57;;;-5.50;99.90;;;;;;5257643;28;20040;-32
2024/01/21 06:06:01;;;;;;;2.90;1.87;;;-5.50;99.90;;;;;;5265970;28;20324;-32
2024/01/21 06:08:32;;;;;;;3.13;2.17;;;-5.70;99.90;;;;;;5269526;28;20223;-32
2024/01/21 06:11:03;;;;;;;3.00;2.13;;;-5.80;99.90;;;;;;5268937;28;20259;-32
2024/01/21 06:13:35;;;;;;;5.67;3.70;;;-5.90;99.90;;;;;;5268985;28;20046;-32
2024/01/21 06:16:08;;;;;;;4.03;2.63;;;-5.90;99.90;;;;;;5265541;28;20032;-32
2024/01/21 06:18:40;;;;;;;;;;;-5.90;99.90;;;;;;5268711;28;20031;-32
2024/01/21 06:21:11;;;;;;;4.07;2.30;;;-6.00;99.90;;;;;;5241725;28;20215;-32
2024/01/21 06:23:43;;;;;;;2.40;1.63;;;-6.00;99.90;;;;;;5235255;28;20032;-32
2024/01/21 06:26:20;;;;;;;2.57;1.70;;;-6.10;99.90;;;;;;5234138;28;20200;-32
2024/01/21 06:28:52;;;;;;;2.23;1.70;;;-6.10;99.90;;;;;;5268293;28;20251;-32
2024/01/21 06:31:23;;;;;;;1.70;1.60;;;-6.10;99.90;;;;;;5246740;28;20038;-32
2024/01/21 06:33:57;;;;;;;3.03;1.70;;;-6.10;99.90;;;;;;5246854;28;20591;-35
2024/01/21 06:36:30;;;;;;;2.80;2.00;;;-6.00;99.90;;;;;;5268912;28;20054;-32
2024/01/21 06:39:07;;;;;;;4.93;2.22;;;-6.00;99.90;;;;;;5263696;28;20032;-32
2024/01/21 06:41:38;;;;;;;1.57;1.40;;;-5.90;99.90;;;;;;5262332;28;20051;-32
2024/01/21 06:44:10;;;;;;;4.40;2.10;;;-5.80;99.90;;;;;;5268528;28;20238;-32
2024/01/21 06:46:45;;;;;;;4.20;2.23;;;-5.80;99.90;;;;;;5247261;28;20040;-32
2024/01/21 06:49:16;;;;;;;3.83;1.90;;;-5.80;99.90;;;;;;5251670;28;20032;-32
2024/01/21 06:51:53;;;;;;;2.70;1.90;;;-5.80;99.90;;;;;;5269750;28;20156;-33
2024/01/21 06:54:24;;;;;;;4.90;2.20;;;-5.80;99.90;;;;;;5264192;28;20032;-33
2024/01/21 06:57:00;;;;;;;2.80;2.10;;;-5.80;99.90;;;;;;5256997;28;20043;-32
2024/01/21 06:59:32;;;;;;;5.23;2.63;;;-5.80;99.90;;;;;;5264015;28;20390;-32
2024/01/21 07:02:04;;;;;;;6.97;3.00;;;-5.60;99.90;;;;;;5264982;28;20036;-32
2024/01/21 07:04:37;;;;;;;8.67;3.87;;;-5.60;99.90;;;;;;5249962;28;20537;-32
2024/01/21 07:07:09;;;;;;;13.80;6.75;;;-5.50;99.90;;;;;;5268508;28;20054;-32
2024/01/21 07:09:44;;;;;;;10.37;4.53;;;-5.30;99.90;;;;;;5268763;28;20036;-32
2024/01/21 07:12:15;;;;;;;13.43;6.90;;;-5.30;99.90;;;;;;5264101;28;20020;-32
2024/01/21 07:14:57;;;;;;;14.27;7.00;;;-5.30;99.90;;;;;;5260123;28;20324;-32
2024/01/21 07:17:28;;;;;;;14.83;6.30;;;-5.10;99.90;;;;;;5265285;28;20028;-32
2024/01/21 07:19:59;;;;;;;8.43;4.63;;;-4.90;99.90;;;;;;5274321;28;20031;-31
2024/01/21 07:22:31;;;;;;;8.13;4.17;;;-4.70;99.90;;;;;;5283474;28;20293;-31
2024/01/21 07:25:02;;;;;;;8.93;4.70;;;-4.50;99.90;;;;;;5253140;28;20260;-31
2024/01/21 07:27:34;;;;;;;7.27;3.90;;;-4.40;99.90;;;;;;5249441;28;20032;-31
2024/01/21 07:30:12;;;;;;;7.93;5.40;;;-4.20;99.90;;;;;;5259633;28;20038;-31
2024/01/21 07:32:46;;;;;;;11.10;5.37;;;-4.20;99.90;;;;;;5268904;28;20560;-34
2024/01/21 07:35:17;;;;;;;9.10;4.70;;;-4.20;99.90;;;;;;5271685;28;20059;-33
2024/01/21 07:37:49;;;;;;;8.77;4.47;;;-4.00;99.90;;;;;;5272354;28;20030;-32
2024/01/21 07:40:20;;;;;;;14.13;5.50;;;-4.00;99.90;;;;;;5272862;28;20028;-32
2024/01/21 07:42:54;;;;;;;11.73;4.60;;;-3.90;99.90;;;;;;5271542;28;20546;-33
2024/01/21 07:45:27;;;;;;;8.27;3.72;;;-3.80;99.90;;;;;;5267949;28;20023;-32
2024/01/21 07:47:59;;;;;;;7.38;4.88;;;-3.70;99.90;;;;;;5270001;28;20256;-31
2024/01/21 07:50:30;;;;;;;7.93;3.90;;;-3.50;99.90;;;;;;5261026;28;20051;-31
2024/01/21 07:53:02;;;;;;;15.13;6.90;;;-3.50;99.90;;;;;;5271519;28;20068;-31
2024/01/21 07:55:37;;;;;;;12.40;6.37;;;-3.40;99.90;;;;;;5267458;28;20316;-31
2024/01/21 07:58:08;;;;;;;14.23;7.00;;;-3.30;99.90;;;;;;5270651;28;20024;-34
2024/01/21 08:00:39;;;;;;;13.73;6.90;;;-3.30;99.90;;;;;;5268406;28;20034;-34
2024/01/21 08:03:13;;;;;;;10.50;5.43;;;-3.30;99.90;;;;;;5262884;28;20028;-33
2024/01/21 08:05:45;;;;;;;10.33;5.73;;;-3.40;99.90;;;;;;5252594;28;20045;-33
2024/01/21 08:08:19;;;;;;;10.87;5.27;;;-3.30;99.90;;;;;;5270148;28;20390;-34
2024/01/21 08:10:52;;;;;;;10.70;5.82;;;-2.90;99.90;;;;;;5271371;28;20032;-34
2024/01/21 08:13:26;;;;;;;13.65;6.60;;;-2.70;99.90;;;;;;5271249;28;20038;-34
2024/01/21 08:15:58;;;;;;;8.23;4.57;;;-2.40;99.90;;;;;;5268273;28;20043;-34
2024/01/21 08:18:29;;;;;;;8.43;4.50;;;-2.20;99.90;;;;;;5264081;28;20036;-34
2024/01/21 08:21:00;;;;;;;5.37;3.30;;;-2.00;99.90;;;;;;5237682;28;20031;-34
2024/01/21 08:23:33;;;;;;;4.70;2.90;;;-1.80;99.90;;;;;;5256961;28;20043;-34
2024/01/21 08:26:07;;;;;;;3.60;2.27;;;-1.60;99.90;;;;;;5259083;28;20020;-34
2024/01/21 08:28:38;;;;;;;4.32;2.83;;;-1.50;99.90;;;;;;5231929;28;20047;-34
2024/01/21 08:31:13;;;;;;;4.57;3.55;;;-1.60;96.40;;;;;;5264530;28;20063;-34
2024/01/21 08:33:47;;;;;;;6.40;2.78;;;-1.40;99.90;;;;;;5270461;28;20054;-34
2024/01/21 08:36:18;;;;;;;5.28;3.03;;;-1.20;99.90;;;;;;5271167;28;20032;-34
2024/01/21 08:38:51;;;;;;;3.90;2.47;;;-1.00;99.90;;;;;;5261041;28;20036;-33
2024/01/21 08:41:26;;;;;;;5.30;2.63;;;-1.00;99.90;;;;;;5264727;28;20581;-34
2024/01/21 08:44:04;;;;;;;6.88;3.53;;;-0.90;99.90;;;;;;5270943;28;20228;-34
2024/01/21 08:46:35;;;;;;;9.30;3.33;;;-0.90;99.90;;;;;;5267145;28;20235;-31
2024/01/21 08:49:08;;;;;;;9.68;4.03;;;-0.70;99.90;;;;;;5271576;28;20036;-31
2024/01/21 08:51:41;;;;;;;7.45;4.43;;;-0.50;99.90;;;;;;5287206;28;20034;-32
2024/01/21 08:54:14;;;;;;;7.50;4.50;;;-0.40;99.90;;;;;;5270196;28;20028;-32
2024/01/21 08:56:52;;;;;;;7.45;3.60;;;-0.10;99.90;;;;;;5255664;28;20032;-32
2024/01/21 08:59:26;;;;;;;6.50;3.40;;;0.10;99.90;;;;;;5266651;28;20043;-32
2024/01/21 09:01:57;;;;;;;5.75;4.35;;;0.40;99.90;;;;;;5267331;28;20338;-32
2024/01/21 09:04:30;;;;;;;10.50;5.88;;;0.50;99.90;;;;;;5252247;28;20042;-32
2024/01/21 09:07:01;;;;;;;11.90;6.78;;;2.00;1.00;;;;;;5231443;28;20062;-34
2024/01/21 09:09:37;;;;;;;8.75;4.13;;;5.00;1.00;;;;;;5269614;28;20046;-39
2024/01/21 09:12:14;;;;;;;6.95;4.05;;;5.40;1.00;;;;;;5269288;28;20031;-27
2024/01/21 09:14:45;;;;;;;6.95;4.07;;;6.40;99.90;;;;;;5266751;28;20032;-52
2024/01/21 09:17:24;;;;;;;8.75;5.15;;;7.20;99.90;;;;;;5256657;28;20032;-50
2024/01/21 09:19:57;;;;;;;5.47;3.08;;;7.80;99.90;;;;;;5275469;28;20039;-50
2024/01/21 09:22:28;;;;;;;11.95;5.45;;;7.80;99.90;;;;;;5249082;28;20347;-50
2024/01/21 09:25:05;;;;;;;11.60;5.32;;;8.10;99.90;;;;;;5258784;28;20058;-56
2024/01/21 09:27:36;;;;;;;6.93;3.90;;;8.10;99.90;;;;;;5249493;28;20036;-50
2024/01/21 09:30:09;;;;;;;9.27;4.50;;;8.40;99.90;;;;;;5261812;28;20035;-50
2024/01/21 09:32:40;;;;;;;5.18;3.00;;;8.80;99.90;;;;;;5246731;28;20044;-50
2024/01/21 09:35:19;;;;;;;4.22;2.70;;;8.80;99.90;;;;;;5237684;28;20282;-51
2024/01/21 09:37:50;;;;;;;9.98;4.53;;;9.00;99.90;;;;;;5251615;28;20355;-51
2024/01/21 09:40:21;;;;;;;3.90;3.00;;;9.00;99.90;;;;;;5250223;28;20036;-51
2024/01/21 09:42:55;;;;;;;5.80;3.50;;;9.20;99.90;;;;;;5263775;28;20077;-51
2024/01/21 09:45:33;;;;;;;6.93;3.90;;;9.50;99.90;;;;;;5226261;28;20301;-51
2024/01/21 09:48:07;;;;;;;7.18;3.38;;;9.70;99.90;;;;;;5251623;28;20036;-51
2024/01/21 09:50:42;;;;;;;4.85;3.35;;;9.40;99.90;;;;;;5269949;28;20223;-51
2024/01/21 09:53:13;;;;;;;4.72;3.13;;;9.00;99.90;;;;;;5249524;28;20043;-50
2024/01/21 09:55:53;;;;;;;9.18;4.18;;;8.60;99.90;;;;;;5259996;28;20032;-51
2024/01/21 09:58:28;;;;;;;5.65;4.05;;;8.90;99.90;;;;;;5266559;28;20028;-54
2024/01/21 10:00:59;;;;;;;6.38;3.70;;;9.50;99.90;;;;;;5263049;28;20036;-51
2024/01/21 10:03:31;;;;;;;5.13;3.65;;;9.60;99.90;;;;;;5263189;28;20040;-50
2024/01/21 10:06:04;;;;;;;4.78;3.30;;;9.90;99.90;;;;;;5255242;28;20350;-51
2024/01/21 10:08:42;;;;;;;6.05;3.75;;;10.30;99.90;;;;;;5255106;28;20035;-51
2024/01/21 10:11:21;;;;;;;6.13;3.85;;;10.80;99.90;;;;;;5263400;28;20039;-50
2024/01/21 10:13:53;;;;;;;3.83;3.38;;;11.10;99.90;;;;;;5267174;28;20039;-51
2024/01/21 10:16:27;;;;;;;5.90;3.58;;;11.30;99.90;;;;;;5265583;28;20239;-50
2024/01/21 10:19:02;;;;;;;5.00;3.15;;;11.20;99.90;;;;;;5249302;28;20036;-49
2024/01/21 10:21:33;;;;;;;3.17;2.70;;;11.00;99.90;;;;;;5257005;28;20285;-49
2024/01/21 10:24:08;;;;;;;3.90;2.80;;;11.20;99.90;;;;;;5252704;28;20339;-50
2024/01/21 10:26:43;;;;;;;4.05;2.80;;;11.70;99.90;;;;;;5254639;28;20035;-49
2024/01/21 10:29:18;;;;;;;3.65;2.55;;;12.00;99.90;;;;;;5266706;28;20043;-49
2024/01/21 10:31:50;;;;;;;4.63;2.55;;;11.90;99.90;;;;;;5265923;28;20028;-49
2024/01/21 10:34:21;;;;;;;5.80;2.20;;;11.30;99.90;;;;;;5267804;28;20027;-47
2024/01/21 10:36:54;;;;;;;3.47;2.10;;;10.40;99.90;;;;;;5263510;28;20024;-47
2024/01/21 10:39:27;;;;;;;4.53;2.70;;;9.80;99.90;;;;;;5248588;28;20019;-47
2024/01/21 10:42:00;;;;;;;4.43;3.10;;;10.10;99.90;;;;;;5261527;28;20028;-47
2024/01/21 10:44:38;;;;;;;4.68;3.42;;;9.80;99.90;;;;;;5268780;28;20050;-48
2024/01/21 10:47:11;;;;;;;4.95;3.10;;;9.60;99.90;;;;;;5245945;28;20040;-38
2024/01/21 10:49:45;;;;;;;5.80;3.13;;;10.10;99.90;;;;;;5248858;28;20272;-44
2024/01/21 10:52:16;;;;;;;;;;;10.00;99.90;;;;;;5247013;28;20047;-40
2024/01/21 10:54:49;;;;;;;5.32;3.60;;;10.10;80.70;;;;;;5258005;28;19927;-40
2024/01/21 10:57:20;;;;;;;3.88;2.50;;;10.20;91.00;;;;;;5267210;28;20036;-41
2024/01/21 10:59:54;;;;;;;4.25;2.47;;;10.50;99.90;;;;;;5243835;28;20415;-41
2024/01/21 11:02:30;;;;;;;;;;;10.60;99.90;;;;;;5268450;28;20239;-40
2024/01/21 11:05:01;;;;;;;4.55;3.13;;;10.80;99.90;;;;;;5272076;28;19914;-40
2024/01/21 11:07:36;;;;;;;4.88;2.70;;;10.30;99.90;;;;;;5244762;28;20432;-39
2024/01/21 11:10:07;;;;;;;;;;;10.60;85.30;;;;;;5263529;28;20105;-40
2024/01/21 11:12:39;;;;;;;3.78;2.92;;;10.60;92.90;;;;;;5270573;28;19922;-40
2024/01/21 11:15:31;;;;;;;3.25;2.63;;;10.60;99.90;;;;;;5250560;28;20050;-40
2024/01/21 11:18:11;;;;;;;4.60;2.40;;;10.80;99.90;;;;;;5266091;28;20028;-43
2024/01/21 11:20:59;;;;;;;7.72;3.60;;;10.10;93.00;;;;;;5271904;28;20341;-39
2024/01/21 11:23:35;;;;;;;5.13;2.92;;;10.90;99.90;;;;;;5261488;28;20032;-37
2024/01/21 11:26:06;;;;;;;6.90;3.72;;;11.80;99.90;;;;;;5259660;28;20047;-38
2024/01/21 11:28:42;;;;;;;12.10;4.03;;;12.90;99.90;;;;;;5252702;28;20031;-37
2024/01/21 11:31:15;;;;;;;7.03;3.50;;;13.10;99.90;;;;;;5246247;28;20032;-36
2024/01/21 11:34:11;;;;;;;5.13;2.60;;;12.90;99.90;;;;;;5253501;28;20028;-42
2024/01/21 11:36:45;;;;;;;4.20;2.63;;;14.00;99.90;;;;;;5252209;28;20050;-30
2024/01/21 11:39:27;;;;;;;6.10;3.03;;;15.20;99.90;;;;;;5269777;28;20046;-34
2024/01/21 11:41:58;;;;;;;4.03;2.75;;;14.40;99.90;;;;;;5257815;28;20035;-32
2024/01/21 11:44:32;;;;;;;7.38;3.17;;;12.00;99.90;;;;;;5254855;28;20047;-29
2024/01/21 11:47:11;;;;;;;4.22;2.67;;;10.20;99.90;;;;;;5259881;28;20039;-43
2024/01/21 11:49:47;;;;;;;4.65;2.67;;;9.50;40.60;;;;;;5271532;28;20044;-40
2024/01/21 11:52:18;;;;;;;3.35;2.28;;;8.90;33.20;;;;;;5241145;28;20059;-40
2024/01/21 11:54:49;;;;;;;3.05;2.58;;;8.80;29.70;;;;;;5266904;28;20036;-40
2024/01/21 11:57:21;;;;;;;5.57;2.97;;;8.30;9.40;;;;;;5254485;28;20032;-39
2024/01/21 11:59:54;;;;;;;4.30;2.83;;;7.80;1.00;;;;;;5263058;28;20051;-40
2024/01/21 12:02:27;;;;;;;4.28;2.97;;;7.50;1.00;;;;;;5268179;28;20045;-40
2024/01/21 12:05:01;;;;;;;2.85;2.58;;;6.40;1.00;;;;;;5249806;28;20041;-39
2024/01/21 12:07:35;;;;;;;3.50;3.00;;;6.60;1.00;;;;;;5245268;28;20324;-40
2024/01/21 12:10:09;;;;;;;3.33;2.83;;;7.10;1.00;;;;;;5250185;28;20044;-39
2024/01/21 12:12:45;;;;;;;;;;;7.20;20.40;;;;;;5263999;28;20042;-39
2024/01/21 12:15:19;;;;;;;3.72;2.25;;;7.20;1.00;;;;;;5267035;28;20195;-40
2024/01/21 12:17:59;;;;;;;3.63;2.53;;;7.20;1.00;;;;;;5270279;28;20051;-40
2024/01/21 12:20:30;;;;;;;3.33;2.42;;;7.10;1.00;;;;;;5263147;28;20035;-39
2024/01/21 12:23:17;;;;;;;2.90;2.60;;;7.40;1.00;;;;;;5270558;28;20028;-39
2024/01/21 12:25:50;;;;;;;4.43;2.50;;;7.00;1.00;;;;;;5256984;28;20036;-39
2024/01/21 12:28:21;;;;;;;3.90;2.25;;;6.30;1.00;;;;;;5231481;22;20048;-71
